createdAt,value
2022-08-17T00:02:09.848Z,3.40
2022-08-17T00:04:52.288Z,3.50
2022-08-17T00:07:18.988Z,3.28
2022-08-17T00:09:45.740Z,3.65
2022-08-17T00:12:43.683Z,3.30
2022-08-17T00:15:00.001Z,3.10
2022-08-17T00:17:26.906Z,3.20
2022-08-17T00:19:53.597Z,3.58
2022-08-17T00:22:31.501Z,3.10
2022-08-17T00:25:03.463Z,3.55
2022-08-17T00:27:30.162Z,3.50
2022-08-17T00:29:56.862Z,3.25
2022-08-17T00:33:11.652Z,3.30
2022-08-17T00:35:12.543Z,3.47
2022-08-17T00:37:40.181Z,3.10
2022-08-17T00:40:09.066Z,3.20
2022-08-17T00:42:36.548Z,3.28
2022-08-17T00:45:05.940Z,3.58
2022-08-17T00:47:33.168Z,3.22
2022-08-17T00:50:00.227Z,3.67
2022-08-17T00:52:35.288Z,3.28
2022-08-17T00:55:04.247Z,3.30
2022-08-17T00:57:35.252Z,3.10
2022-08-17T01:00:12.610Z,3.28
2022-08-17T01:02:43.180Z,3.13
2022-08-17T01:05:23.908Z,3.03
2022-08-17T01:07:52.876Z,2.97
2022-08-17T01:10:58.766Z,3.10
2022-08-17T01:13:24.427Z,3.10
2022-08-17T01:16:01.852Z,3.35
2022-08-17T01:18:29.213Z,3.38
2022-08-17T01:20:58.550Z,3.05
2022-08-17T01:23:28.796Z,3.05
2022-08-17T01:25:59.078Z,2.97
2022-08-17T01:28:53.095Z,3.20
2022-08-17T01:31:17.822Z,2.72
2022-08-17T01:33:44.590Z,2.95
2022-08-17T01:36:11.343Z,3.15
2022-08-17T01:38:38.849Z,3.05
2022-08-17T01:41:11.749Z,3.25
2022-08-17T01:44:02.089Z,3.03
2022-08-17T01:46:33.411Z,2.65
2022-08-17T01:49:01.136Z,3.35
2022-08-17T01:51:32.726Z,3.17
2022-08-17T01:54:05.253Z,3.22
2022-08-17T01:56:33.965Z,3.08
2022-08-17T01:59:00.827Z,3.60
2022-08-17T02:01:30.006Z,3.20
2022-08-17T02:04:00.426Z,3.17
2022-08-17T02:06:29.829Z,3.00
2022-08-17T02:09:02.954Z,3.08
2022-08-17T02:11:33.316Z,3.58
2022-08-17T02:14:02.817Z,3.22
2022-08-17T02:16:37.575Z,3.22
2022-08-17T02:19:07.921Z,3.42
2022-08-17T02:21:36.389Z,3.20
2022-08-17T02:24:04.464Z,3.30
2022-08-17T02:26:31.301Z,3.40
2022-08-17T02:28:58.050Z,3.20
2022-08-17T02:31:24.810Z,3.47
2022-08-17T02:34:00.316Z,3.58
2022-08-17T02:36:32.191Z,3.63
2022-08-17T02:39:04.618Z,3.17
2022-08-17T02:41:31.502Z,3.40
2022-08-17T02:43:58.603Z,4.28
2022-08-17T02:46:25.938Z,3.30
2022-08-17T02:48:52.671Z,3.33
2022-08-17T02:51:19.480Z,3.67
2022-08-17T02:53:46.755Z,3.50
2022-08-17T02:56:13.917Z,3.50
2022-08-17T02:58:40.755Z,3.80
2022-08-17T03:01:09.735Z,3.38
2022-08-17T03:03:37.505Z,3.80
2022-08-17T03:06:05.922Z,3.60
2022-08-17T03:08:32.653Z,3.92
2022-08-17T03:10:59.686Z,3.97
2022-08-17T03:13:27.534Z,3.40
2022-08-17T03:15:54.384Z,3.75
2022-08-17T03:18:25.122Z,3.45
2022-08-17T03:20:58.377Z,3.50
2022-08-17T03:23:27.257Z,3.73
2022-08-17T03:25:54.994Z,3.90
2022-08-17T03:28:23.394Z,3.80
2022-08-17T03:30:51.233Z,3.78
2022-08-17T03:33:19.131Z,3.50
2022-08-17T03:35:46.313Z,4.00
2022-08-17T03:38:15.175Z,3.58
2022-08-17T03:40:56.971Z,3.63
2022-08-17T03:46:28.143Z,4.00
2022-08-17T03:49:17.850Z,3.88
2022-08-17T03:52:03.053Z,3.35
2022-08-17T03:54:48.206Z,4.07
2022-08-17T03:57:14.933Z,3.90
2022-08-17T03:59:41.845Z,3.83
2022-08-17T04:02:25.576Z,3.67
2022-08-17T04:04:52.777Z,3.80
2022-08-17T04:07:21.046Z,3.85
2022-08-17T04:09:48.437Z,3.55
2022-08-17T04:12:17.861Z,3.90
2022-08-17T04:14:53.562Z,4.03
2022-08-17T04:17:27.236Z,4.32
2022-08-17T04:19:55.606Z,4.15
2022-08-17T04:22:32.737Z,3.80
2022-08-17T04:25:18.045Z,4.13
2022-08-17T04:27:44.859Z,3.92
2022-08-17T04:30:12.451Z,4.30
2022-08-17T04:33:07.346Z,4.07
2022-08-17T04:35:46.113Z,4.65
2022-08-17T04:38:15.748Z,4.47
2022-08-17T04:41:02.058Z,4.15
2022-08-17T04:43:30.967Z,4.20
2022-08-17T04:46:04.650Z,4.47
2022-08-17T04:48:37.767Z,4.20
2022-08-17T04:51:09.570Z,4.38
2022-08-17T04:53:36.917Z,4.47
2022-08-17T04:56:04.134Z,4.03
2022-08-17T04:58:31.071Z,4.45
2022-08-17T05:00:57.999Z,4.00
2022-08-17T05:03:24.891Z,4.28
2022-08-17T05:05:51.703Z,3.83
2022-08-17T05:08:20.274Z,4.18
2022-08-17T05:10:47.638Z,3.80
2022-08-17T05:13:18.853Z,4.25
2022-08-17T05:15:47.884Z,3.70
2022-08-17T05:18:16.073Z,4.60
2022-08-17T05:20:43.655Z,4.15
2022-08-17T05:23:13.660Z,4.50
2022-08-17T05:25:47.338Z,4.07
2022-08-17T05:28:52.431Z,4.25
2022-08-17T05:35:59.852Z,4.30
2022-08-17T05:45:54.916Z,4.13
2022-08-17T05:49:20.868Z,4.20
2022-08-17T05:59:28.009Z,4.10
2022-08-17T06:03:12.534Z,3.72
2022-08-17T06:06:09.233Z,3.85
2022-08-17T06:08:42.493Z,3.65
2022-08-17T06:11:23.928Z,3.90
2022-08-17T06:14:32.883Z,4.00
2022-08-17T06:17:08.252Z,3.90
2022-08-17T06:19:54.592Z,3.80
2022-08-17T06:22:26.324Z,4.15
2022-08-17T06:25:01.240Z,3.60
2022-08-17T06:27:46.814Z,3.75
2022-08-17T06:30:27.627Z,3.17
2022-08-17T06:32:59.605Z,4.22
2022-08-17T06:35:37.813Z,3.95
2022-08-17T06:38:37.916Z,3.60
2022-08-17T06:41:45.587Z,3.40
2022-08-17T06:44:49.923Z,2.83
2022-08-17T06:47:28.756Z,3.00
2022-08-17T06:50:07.678Z,2.72
2022-08-17T06:52:46.860Z,3.58
2022-08-17T06:55:38.145Z,3.30
2022-08-17T06:58:15.872Z,2.97
2022-08-17T07:00:47.272Z,3.08
2022-08-17T07:03:30.035Z,2.90
2022-08-17T07:06:20.801Z,2.77
2022-08-17T07:08:57.604Z,3.08
2022-08-17T07:11:34.069Z,2.67
2022-08-17T07:14:25.267Z,3.00
2022-08-17T07:16:55.370Z,3.20
2022-08-17T07:19:26.003Z,3.00
2022-08-17T07:22:15.797Z,2.67
2022-08-17T07:25:00.759Z,3.03
2022-08-17T07:27:35.661Z,2.83
2022-08-17T07:30:10.337Z,2.80
2022-08-17T07:32:47.577Z,2.80
2022-08-17T07:35:16.565Z,2.92
2022-08-17T07:37:53.166Z,3.30
2022-08-17T07:40:36.052Z,3.17
2022-08-17T07:43:05.133Z,2.85
2022-08-17T07:49:11.031Z,2.50
2022-08-17T07:51:48.602Z,3.17
2022-08-17T07:54:15.798Z,2.55
2022-08-17T07:56:56.575Z,3.08
2022-08-17T08:00:04.102Z,2.50
2022-08-17T08:02:54.665Z,3.00
2022-08-17T08:05:49.493Z,3.05
2022-08-17T08:08:32.434Z,3.10
2022-08-17T08:11:03.689Z,2.95
2022-08-17T08:13:35.369Z,2.92
2022-08-17T08:16:27.693Z,2.47
2022-08-17T08:18:59.745Z,3.03
2022-08-17T08:21:56.731Z,2.72
2022-08-17T08:25:01.243Z,2.95
2022-08-17T08:27:40.225Z,2.60
2022-08-17T08:30:14.483Z,2.50
2022-08-17T08:33:01.578Z,2.80
2022-08-17T08:35:55.191Z,2.70
2022-08-17T08:38:47.414Z,3.00
2022-08-17T08:41:26.366Z,3.28
2022-08-17T08:44:06.517Z,2.60
2022-08-17T08:46:59.963Z,2.83
2022-08-17T08:50:08.471Z,2.40
2022-08-17T08:53:03.105Z,2.70
2022-08-17T08:55:48.518Z,2.65
2022-08-17T08:58:36.294Z,3.00
2022-08-17T09:01:32.415Z,2.75
2022-08-17T09:04:24.718Z,2.90
2022-08-17T09:07:01.648Z,2.60
2022-08-17T09:09:59.374Z,2.72
2022-08-17T09:13:13.816Z,2.70
2022-08-17T09:15:48.024Z,2.88
2022-08-17T09:19:00.223Z,2.78
2022-08-17T09:21:55.876Z,2.95
2022-08-17T09:24:36.193Z,2.63
2022-08-17T09:27:25.898Z,2.90
2022-08-17T09:30:04.054Z,3.15
2022-08-17T09:32:49.067Z,3.20
2022-08-17T09:35:59.678Z,3.50
2022-08-17T09:38:36.901Z,2.63
2022-08-17T09:42:01.080Z,3.05
2022-08-17T09:47:30.662Z,2.85
2022-08-17T09:51:03.314Z,3.17
2022-08-17T09:53:15.486Z,3.00
2022-08-17T09:56:33.927Z,2.80
2022-08-17T09:59:25.007Z,2.88
2022-08-17T10:02:21.010Z,3.03
2022-08-17T10:05:18.802Z,3.00
2022-08-17T10:07:57.589Z,3.03
2022-08-17T10:10:52.502Z,3.13
2022-08-17T10:13:53.762Z,3.20
2022-08-17T10:20:27.120Z,3.22
2022-08-17T11:00:08.321Z,3.22
2022-08-17T11:11:50.324Z,3.85
2022-08-17T11:14:30.564Z,4.05
2022-08-17T11:21:49.131Z,3.50
2022-08-17T11:24:31.505Z,3.75
2022-08-17T11:27:15.285Z,3.97
2022-08-17T11:30:05.568Z,3.65
2022-08-17T11:36:38.923Z,3.85
2022-08-17T11:39:28.568Z,4.30
2022-08-17T11:42:42.564Z,4.00
2022-08-17T11:45:46.651Z,4.35
2022-08-17T11:48:58.148Z,4.13
2022-08-17T11:52:01.182Z,4.60
2022-08-17T11:54:33.450Z,4.53
2022-08-17T11:57:21.525Z,4.57
2022-08-17T11:59:48.412Z,4.00
2022-08-17T12:02:36.175Z,3.80
2022-08-17T12:05:18.001Z,4.30
2022-08-17T12:07:52.403Z,3.95
2022-08-17T12:10:31.995Z,3.80
2022-08-17T12:13:02.321Z,3.40
2022-08-17T12:15:36.396Z,3.88
2022-08-17T12:18:04.933Z,3.60
2022-08-17T12:20:56.934Z,3.50
2022-08-17T12:23:35.426Z,3.20
2022-08-17T12:26:20.521Z,3.28
2022-08-17T12:28:50.103Z,3.65
2022-08-17T12:31:36.615Z,3.67
2022-08-17T12:34:06.025Z,3.60
2022-08-17T12:36:38.595Z,4.15
2022-08-17T12:42:15.658Z,3.38
2022-08-17T12:54:50.199Z,2.63
2022-08-17T12:57:36.377Z,2.63
2022-08-17T13:01:14.298Z,2.40
2022-08-17T13:08:00.393Z,2.13
2022-08-17T13:10:59.944Z,2.63
2022-08-17T13:18:04.744Z,2.40
2022-08-17T13:21:07.961Z,2.42
2022-08-17T13:24:07.638Z,2.78
2022-08-17T13:27:44.407Z,2.25
2022-08-17T13:30:12.576Z,2.20
2022-08-17T13:32:50.016Z,2.28
2022-08-17T13:36:28.933Z,2.00
2022-08-17T13:41:53.599Z,2.20
2022-08-17T13:44:53.296Z,2.17
2022-08-17T13:47:30.698Z,1.90
2022-08-17T13:49:58.832Z,1.80
2022-08-17T13:58:19.149Z,2.70
2022-08-17T14:05:00.603Z,2.10
2022-08-17T14:15:55.224Z,1.73
2022-08-17T14:21:27.248Z,2.42
2022-08-17T14:24:29.130Z,2.30
2022-08-17T14:28:08.148Z,2.20
2022-08-17T14:30:37.498Z,2.15
2022-08-17T14:33:39.348Z,2.47
2022-08-17T14:36:18.567Z,2.20
2022-08-17T14:43:17.362Z,2.10
2022-08-17T14:46:18.250Z,2.35
2022-08-17T14:49:04.628Z,2.33
2022-08-17T14:51:43.573Z,2.45
2022-08-17T14:58:45.802Z,1.92
2022-08-17T15:01:24.694Z,2.25
2022-08-17T15:08:28.113Z,2.30
2022-08-17T15:12:13.544Z,2.33
2022-08-17T15:15:10.469Z,1.98
2022-08-17T15:18:16.009Z,2.33
2022-08-17T15:20:44.526Z,2.20
2022-08-17T15:23:15.815Z,2.20
2022-08-17T15:25:43.774Z,2.65
2022-08-17T15:28:13.147Z,2.00
2022-08-17T15:30:44.821Z,2.10
2022-08-17T15:33:16.758Z,2.33
2022-08-17T15:35:43.807Z,2.25
2022-08-17T15:38:13.012Z,2.30
2022-08-17T15:40:44.386Z,2.00
2022-08-17T15:43:17.672Z,2.33
2022-08-17T15:45:58.661Z,2.00
2022-08-17T15:48:44.718Z,2.50
2022-08-17T15:51:24.052Z,1.90
2022-08-17T15:53:56.822Z,2.40
2022-08-17T15:56:25.878Z,2.20
2022-08-17T15:58:54.773Z,1.90
2022-08-17T16:02:22.363Z,2.42
2022-08-17T16:04:30.184Z,1.75
2022-08-17T16:07:06.966Z,2.00
2022-08-17T16:09:33.999Z,2.00
2022-08-17T16:12:12.923Z,2.33
2022-08-17T16:14:39.952Z,2.22
2022-08-17T16:17:38.918Z,2.20
2022-08-17T16:19:55.690Z,2.20
2022-08-17T16:22:44.082Z,2.33
2022-08-17T16:25:23.407Z,2.42
2022-08-17T16:28:10.745Z,2.22
2022-08-17T16:30:38.301Z,2.33
2022-08-17T16:33:05.803Z,2.22
2022-08-17T16:35:32.876Z,2.08
2022-08-17T16:38:09.638Z,1.95
2022-08-17T16:40:38.168Z,2.10
2022-08-17T16:43:10.604Z,1.80
2022-08-17T16:45:40.678Z,2.25
2022-08-17T16:48:09.693Z,1.92
2022-08-17T16:50:40.436Z,1.95
2022-08-17T16:53:10.880Z,2.25
2022-08-17T16:55:38.797Z,1.90
2022-08-17T16:58:06.927Z,2.30
2022-08-17T17:00:34.940Z,2.50
2022-08-17T17:03:19.754Z,2.30
2022-08-17T17:06:08.130Z,2.53
2022-08-17T17:08:35.112Z,2.20
2022-08-17T17:11:24.871Z,2.65
2022-08-17T17:14:02.190Z,2.33
2022-08-17T17:16:29.217Z,2.63
2022-08-17T17:19:14.873Z,2.40
2022-08-17T17:21:52.953Z,2.50
2022-08-17T17:24:32.163Z,2.20
2022-08-17T17:27:08.270Z,2.47
2022-08-17T17:29:57.681Z,2.33
2022-08-17T17:32:50.671Z,2.70
2022-08-17T17:35:32.354Z,2.42
2022-08-17T17:58:14.181Z,2.97
2022-08-17T18:05:37.303Z,2.42
2022-08-17T18:19:50.394Z,2.60
2022-08-17T18:23:03.854Z,2.60
2022-08-17T18:26:08.912Z,2.33
2022-08-17T18:29:14.330Z,2.90
2022-08-17T18:31:47.407Z,3.20
2022-08-17T18:34:47.218Z,3.10
2022-08-17T18:37:53.933Z,2.90
2022-08-17T18:52:12.315Z,3.40
2022-08-17T19:10:47.417Z,3.47
2022-08-17T19:13:40.716Z,3.92
2022-08-17T19:16:27.321Z,3.65
2022-08-17T19:19:14.033Z,3.70
2022-08-17T19:21:46.315Z,3.10
2022-08-17T19:24:24.526Z,3.87
2022-08-17T19:27:14.010Z,3.40
2022-08-17T19:30:07.630Z,3.40
2022-08-17T19:32:36.011Z,3.25
2022-08-17T19:35:08.069Z,3.20
2022-08-17T19:37:50.032Z,3.03
2022-08-17T19:40:54.694Z,3.30
2022-08-17T19:43:48.095Z,3.95
2022-08-17T19:46:30.158Z,3.47
2022-08-17T19:49:14.622Z,3.28
2022-08-17T19:51:58.111Z,3.30
2022-08-17T19:58:43.267Z,3.50
2022-08-17T20:02:03.279Z,3.80
2022-08-17T20:06:10.979Z,3.45
2022-08-17T20:14:07.870Z,2.88
2022-08-17T20:16:36.019Z,3.08
2022-08-17T20:34:33.416Z,3.58
2022-08-17T20:37:22.867Z,3.33
2022-08-17T20:39:49.610Z,3.67
2022-08-17T20:42:22.377Z,3.20
2022-08-17T20:44:52.854Z,3.15
2022-08-17T20:47:55.344Z,3.60
2022-08-17T20:50:32.997Z,3.38
2022-08-17T20:53:02.390Z,3.20
2022-08-17T20:55:39.345Z,3.47
2022-08-17T20:58:36.627Z,3.25
2022-08-17T21:01:13.151Z,3.17
2022-08-17T21:03:50.460Z,3.38
2022-08-17T21:06:21.361Z,3.58
2022-08-17T21:08:57.652Z,3.80
2022-08-17T21:12:03.155Z,3.03
2022-08-17T21:14:58.065Z,3.03
2022-08-17T21:17:48.333Z,3.50
2022-08-17T21:20:34.597Z,3.55
2022-08-17T21:23:27.886Z,3.20
2022-08-17T21:26:20.483Z,3.90
2022-08-17T21:29:30.246Z,3.45
2022-08-17T21:31:59.557Z,3.20
2022-08-17T21:34:29.538Z,3.28
2022-08-17T21:37:23.484Z,4.15
2022-08-17T21:40:01.107Z,3.35
2022-08-17T21:42:34.582Z,3.58
2022-08-17T21:45:27.401Z,3.78
2022-08-17T21:48:09.372Z,3.43
2022-08-17T21:50:36.905Z,3.55
2022-08-17T21:53:05.319Z,3.70
2022-08-17T21:55:34.163Z,3.47
2022-08-17T21:58:14.586Z,3.58
2022-08-17T22:00:44.445Z,3.50
2022-08-17T22:03:30.280Z,3.03
2022-08-17T22:05:57.044Z,2.97
2022-08-17T22:08:25.262Z,2.90
2022-08-17T22:11:00.754Z,3.22
2022-08-17T22:13:30.633Z,2.63
2022-08-17T22:16:28.629Z,2.85
2022-08-17T22:18:57.889Z,2.47
2022-08-17T22:21:25.344Z,2.88
2022-08-17T22:24:15.429Z,2.60
2022-08-17T22:27:03.455Z,2.60
2022-08-17T22:29:53.341Z,3.05
2022-08-17T22:32:38.158Z,2.60
2022-08-17T22:35:29.210Z,2.50
2022-08-17T22:37:56.937Z,2.80
2022-08-17T22:40:26.335Z,3.03
2022-08-17T22:42:53.706Z,2.75
2022-08-17T22:45:20.577Z,2.92
2022-08-17T22:47:48.884Z,2.85
2022-08-17T22:50:35.914Z,2.90
2022-08-17T22:53:37.006Z,2.90
2022-08-17T22:56:23.312Z,2.92
2022-08-17T22:59:17.093Z,3.42
2022-08-17T23:01:46.071Z,3.17
2022-08-17T23:04:35.782Z,2.70
2022-08-17T23:07:02.568Z,3.08
2022-08-17T23:09:29.840Z,3.10
2022-08-17T23:11:58.513Z,2.95
2022-08-17T23:14:31.575Z,2.90
2022-08-17T23:19:31.656Z,3.20
2022-08-17T23:21:59.583Z,3.08
2022-08-17T23:24:29.713Z,3.30
2022-08-17T23:26:58.955Z,3.20
2022-08-17T23:29:29.241Z,3.03
2022-08-17T23:31:59.625Z,3.20
2022-08-17T23:34:27.992Z,3.20
2022-08-17T23:36:55.625Z,3.25
2022-08-17T23:39:27.370Z,3.30
2022-08-17T23:41:58.196Z,3.15
2022-08-17T23:44:25.724Z,3.25
2022-08-17T23:46:53.211Z,3.10
2022-08-17T23:49:20.229Z,3.22
2022-08-17T23:51:48.592Z,2.97
2022-08-17T23:54:31.378Z,2.80
2022-08-17T23:56:58.154Z,3.15
2022-08-17T23:59:26.876Z,3.80
